createdAt,value
2024-03-15T00:00:03.821Z,76.90
2024-03-15T00:02:32.165Z,76.90
2024-03-15T00:05:00.854Z,77.00
2024-03-15T00:07:29.551Z,76.90
2024-03-15T00:09:58.051Z,76.80
2024-03-15T00:12:26.970Z,76.80
2024-03-15T00:14:56.712Z,76.80
2024-03-15T00:17:25.340Z,77.00
2024-03-15T00:19:53.574Z,77.30
2024-03-15T00:22:23.351Z,77.50
2024-03-15T00:24:51.820Z,77.60
2024-03-15T00:27:20.566Z,77.60
2024-03-15T00:29:49.224Z,77.70
2024-03-15T00:32:17.892Z,77.80
2024-03-15T00:34:46.144Z,77.80
2024-03-15T00:37:14.718Z,77.80
2024-03-15T00:39:43.006Z,77.60
2024-03-15T00:42:11.293Z,77.10
2024-03-15T00:44:39.828Z,76.90
2024-03-15T00:47:08.684Z,76.80
2024-03-15T00:49:37.242Z,76.80
2024-03-15T00:52:05.717Z,76.90
2024-03-15T00:54:36.273Z,76.90
2024-03-15T00:57:06.435Z,76.90
2024-03-15T00:59:35.707Z,76.90
2024-03-15T01:02:03.904Z,76.90
2024-03-15T01:04:32.542Z,77.10
2024-03-15T01:07:00.253Z,77.30
2024-03-15T01:09:28.508Z,77.50
2024-03-15T01:11:57.084Z,77.80
2024-03-15T01:14:25.297Z,78.90
2024-03-15T01:16:53.491Z,78.10
2024-03-15T01:19:22.039Z,78.20
2024-03-15T01:21:50.311Z,78.30
2024-03-15T01:24:18.934Z,78.40
2024-03-15T01:26:47.582Z,78.50
2024-03-15T01:29:15.990Z,78.50
2024-03-15T01:31:47.088Z,78.50
2024-03-15T01:34:15.596Z,78.70
2024-03-15T01:36:44.137Z,78.80
2024-03-15T01:39:12.786Z,78.70
2024-03-15T01:41:41.107Z,78.70
2024-03-15T01:44:09.656Z,78.60
2024-03-15T01:46:37.931Z,78.70
2024-03-15T01:49:07.737Z,78.70
2024-03-15T01:51:36.066Z,78.80
2024-03-15T01:54:04.723Z,78.70
2024-03-15T01:56:33.322Z,78.60
2024-03-15T01:59:01.747Z,78.50
2024-03-15T02:01:30.341Z,78.40
2024-03-15T02:03:59.961Z,78.40
2024-03-15T02:06:28.297Z,78.60
2024-03-15T02:08:57.573Z,78.50
2024-03-15T02:11:26.365Z,78.50
2024-03-15T02:13:54.830Z,78.60
2024-03-15T02:16:23.381Z,78.60
2024-03-15T02:18:51.858Z,78.50
2024-03-15T02:21:20.239Z,78.60
2024-03-15T02:23:48.901Z,78.70
2024-03-15T02:26:19.079Z,78.80
2024-03-15T02:28:47.428Z,79.00
2024-03-15T02:31:15.765Z,78.80
2024-03-15T02:33:46.236Z,78.90
2024-03-15T02:36:14.625Z,78.90
2024-03-15T02:38:43.197Z,79.00
2024-03-15T02:41:11.721Z,78.90
2024-03-15T02:43:40.666Z,79.10
2024-03-15T02:46:09.223Z,79.10
2024-03-15T02:48:39.991Z,79.20
2024-03-15T02:51:08.627Z,79.30
2024-03-15T02:53:36.853Z,79.30
2024-03-15T02:56:05.586Z,79.40
2024-03-15T02:58:33.841Z,79.40
2024-03-15T03:01:02.511Z,79.40
2024-03-15T03:03:32.860Z,79.30
2024-03-15T03:06:01.696Z,79.30
2024-03-15T03:08:29.982Z,79.30
2024-03-15T03:10:58.664Z,79.30
2024-03-15T03:13:26.922Z,79.30
2024-03-15T03:15:55.867Z,79.20
2024-03-15T03:18:24.366Z,79.10
2024-03-15T03:20:53.033Z,79.10
2024-03-15T03:23:22.827Z,79.10
2024-03-15T03:25:51.880Z,79.10
2024-03-15T03:28:20.436Z,79.10
2024-03-15T03:30:49.290Z,79.10
2024-03-15T03:33:17.644Z,79.10
2024-03-15T03:35:45.952Z,79.10
2024-03-15T03:38:14.534Z,79.10
2024-03-15T03:40:43.055Z,79.10
2024-03-15T03:43:11.399Z,79.00
2024-03-15T03:45:43.551Z,79.00
2024-03-15T03:48:12.207Z,78.90
2024-03-15T03:50:40.604Z,78.90
2024-03-15T03:53:09.660Z,78.90
2024-03-15T03:55:41.452Z,78.90
2024-03-15T03:58:11.862Z,79.10
2024-03-15T04:00:40.201Z,79.00
2024-03-15T04:03:09.029Z,78.90
2024-03-15T04:05:39.190Z,78.90
2024-03-15T04:08:08.069Z,78.80
2024-03-15T04:10:37.784Z,78.80
2024-03-15T04:13:06.072Z,78.90
2024-03-15T04:15:34.847Z,78.80
2024-03-15T04:18:03.940Z,78.90
2024-03-15T04:20:33.129Z,78.70
2024-03-15T04:23:01.730Z,78.80
2024-03-15T04:25:30.096Z,78.80
2024-03-15T04:27:58.628Z,78.80
2024-03-15T04:30:27.252Z,78.70
2024-03-15T04:32:57.415Z,78.70
2024-03-15T04:35:30.115Z,78.70
2024-03-15T04:37:58.915Z,78.70
2024-03-15T04:40:30.238Z,78.70
2024-03-15T04:42:59.328Z,78.70
2024-03-15T04:45:27.687Z,78.70
2024-03-15T04:47:58.277Z,78.70
2024-03-15T04:50:26.530Z,78.70
2024-03-15T04:52:55.335Z,78.70
2024-03-15T04:55:23.862Z,78.60
2024-03-15T04:57:52.948Z,78.30
2024-03-15T05:00:22.933Z,78.00
2024-03-15T05:02:53.102Z,78.00
2024-03-15T05:05:25.333Z,78.00
2024-03-15T05:07:55.368Z,78.30
2024-03-15T05:10:24.163Z,78.40
2024-03-15T05:12:53.038Z,78.70
2024-03-15T05:15:21.862Z,78.90
2024-03-15T05:17:50.697Z,78.90
2024-03-15T05:20:19.871Z,79.00
2024-03-15T05:22:48.555Z,79.00
2024-03-15T05:25:17.944Z,79.00
2024-03-15T05:27:47.675Z,78.90
2024-03-15T05:30:19.426Z,78.60
2024-03-15T05:32:48.989Z,78.60
2024-03-15T05:35:20.450Z,78.40
2024-03-15T05:37:48.920Z,78.50
2024-03-15T05:40:19.688Z,78.50
2024-03-15T05:42:49.199Z,78.50
2024-03-15T05:45:19.300Z,78.80
2024-03-15T05:47:48.285Z,78.80
2024-03-15T05:50:16.905Z,79.10
2024-03-15T05:52:45.431Z,79.20
2024-03-15T05:55:14.718Z,79.20
2024-03-15T05:57:43.093Z,79.40
2024-03-15T06:00:17.050Z,79.40
2024-03-15T06:02:46.566Z,79.70
2024-03-15T06:05:14.917Z,80.10
2024-03-15T06:07:43.882Z,80.10
2024-03-15T06:10:12.142Z,80.30
2024-03-15T06:12:40.577Z,80.40
2024-03-15T06:15:10.948Z,80.50
2024-03-15T06:17:41.177Z,80.60
2024-03-15T06:20:11.862Z,80.60
2024-03-15T06:22:40.520Z,80.60
2024-03-15T06:25:09.339Z,80.50
2024-03-15T06:27:40.735Z,80.60
2024-03-15T06:30:11.405Z,80.50
2024-03-15T06:32:40.486Z,80.30
2024-03-15T06:35:20.173Z,80.30
2024-03-15T06:37:55.595Z,80.20
2024-03-15T06:40:32.465Z,80.00
2024-03-15T06:43:26.936Z,80.00
2024-03-15T06:45:58.911Z,79.90
2024-03-15T06:48:37.167Z,79.80
2024-03-15T06:51:19.632Z,79.70
2024-03-15T06:53:49.225Z,79.70
2024-03-15T06:56:17.520Z,79.70
2024-03-15T06:58:46.049Z,79.70
2024-03-15T07:01:14.625Z,79.70
2024-03-15T07:03:43.012Z,79.80
2024-03-15T07:06:11.991Z,79.90
2024-03-15T07:08:41.178Z,79.80
2024-03-15T07:11:13.552Z,79.70
2024-03-15T07:13:42.334Z,79.70
2024-03-15T07:16:10.683Z,79.60
2024-03-15T07:18:41.811Z,79.50
2024-03-15T07:21:12.894Z,79.50
2024-03-15T07:23:42.580Z,79.50
2024-03-15T07:26:12.043Z,79.30
2024-03-15T07:28:41.078Z,79.40
2024-03-15T07:31:10.262Z,79.30
2024-03-15T07:33:39.250Z,79.20
2024-03-15T07:36:09.733Z,79.10
2024-03-15T07:38:38.635Z,79.10
2024-03-15T07:41:11.996Z,79.10
2024-03-15T07:43:40.259Z,79.20
2024-03-15T07:46:09.804Z,79.10
2024-03-15T07:48:38.417Z,79.10
2024-03-15T07:51:06.885Z,79.30
2024-03-15T07:53:35.183Z,79.30
2024-03-15T07:56:05.438Z,79.20
2024-03-15T07:58:34.432Z,79.10
2024-03-15T08:01:02.926Z,79.10
2024-03-15T08:03:34.025Z,79.10
2024-03-15T08:06:03.448Z,79.10
2024-03-15T08:08:32.583Z,79.10
2024-03-15T08:11:03.373Z,79.10
2024-03-15T08:13:33.994Z,78.90
2024-03-15T08:16:19.810Z,79.00
2024-03-15T08:18:50.786Z,79.00
2024-03-15T08:21:19.493Z,79.10
2024-03-15T08:23:48.760Z,79.20
2024-03-15T08:26:17.037Z,79.20
2024-03-15T08:28:45.594Z,79.10
2024-03-15T08:31:14.264Z,79.10
2024-03-15T08:33:42.704Z,79.10
2024-03-15T08:36:11.399Z,79.10
2024-03-15T08:38:40.028Z,79.10
2024-03-15T08:41:10.520Z,79.00
2024-03-15T08:43:39.251Z,78.90
2024-03-15T08:46:07.608Z,78.90
2024-03-15T08:48:36.015Z,78.90
2024-03-15T08:51:05.391Z,78.80
2024-03-15T08:53:34.269Z,78.90
2024-03-15T08:56:02.772Z,78.90
2024-03-15T08:58:31.007Z,78.80
2024-03-15T09:01:00.006Z,78.60
2024-03-15T09:03:28.600Z,78.60
2024-03-15T09:05:56.844Z,78.20
2024-03-15T09:08:26.017Z,78.20
2024-03-15T09:10:54.567Z,78.30
2024-03-15T09:13:22.863Z,78.20
2024-03-15T09:15:51.663Z,78.10
2024-03-15T09:18:20.343Z,78.20
2024-03-15T09:20:49.068Z,78.00
2024-03-15T09:23:17.607Z,77.50
2024-03-15T09:25:45.975Z,77.50
2024-03-15T09:28:14.938Z,77.00
2024-03-15T09:30:57.898Z,77.10
2024-03-15T09:33:37.109Z,77.20
2024-03-15T09:36:07.151Z,77.00
2024-03-15T09:38:35.711Z,76.90
2024-03-15T09:41:07.480Z,76.60
2024-03-15T09:43:36.352Z,76.60
2024-03-15T09:46:05.522Z,76.20
2024-03-15T09:48:34.556Z,76.50
2024-03-15T09:51:05.637Z,76.30
2024-03-15T09:53:34.146Z,76.30
2024-03-15T09:56:05.220Z,75.70
2024-03-15T09:58:34.478Z,75.70
2024-03-15T10:01:03.428Z,76.00
2024-03-15T10:03:32.108Z,75.50
2024-03-15T10:06:02.908Z,75.80
2024-03-15T10:08:31.644Z,75.90
2024-03-15T10:11:00.103Z,75.70
2024-03-15T10:13:31.288Z,75.70
2024-03-15T10:16:01.374Z,75.20
2024-03-15T10:18:30.805Z,75.30
2024-03-15T10:20:59.642Z,75.30
2024-03-15T10:23:28.224Z,74.80
2024-03-15T10:26:02.764Z,74.90
2024-03-15T10:28:31.334Z,74.80
2024-03-15T10:30:59.757Z,74.60
2024-03-15T10:33:28.522Z,74.30
2024-03-15T10:35:56.891Z,73.50
2024-03-15T10:38:25.559Z,73.80
2024-03-15T10:40:54.100Z,74.70
2024-03-15T10:43:22.362Z,73.40
2024-03-15T10:45:51.145Z,73.00
2024-03-15T10:48:21.103Z,72.60
2024-03-15T10:50:49.661Z,72.90
2024-03-15T10:53:18.055Z,72.80
2024-03-15T10:55:49.244Z,72.20
2024-03-15T10:58:17.934Z,71.30
2024-03-15T11:00:48.573Z,70.90
2024-03-15T11:03:18.111Z,70.80
2024-03-15T11:05:47.199Z,70.50
2024-03-15T11:08:15.496Z,71.00
2024-03-15T11:10:53.974Z,71.30
2024-03-15T11:13:24.531Z,71.00
2024-03-15T11:15:54.775Z,70.30
2024-03-15T11:18:23.844Z,69.30
2024-03-15T11:20:53.916Z,70.10
2024-03-15T11:23:22.249Z,68.60
2024-03-15T11:25:57.008Z,69.50
2024-03-15T11:28:25.458Z,69.20
2024-03-15T11:30:53.717Z,69.50
2024-03-15T11:33:22.478Z,69.10
2024-03-15T11:35:50.898Z,68.40
2024-03-15T11:38:19.433Z,69.20
2024-03-15T11:40:47.795Z,68.30
2024-03-15T11:43:16.503Z,68.20
2024-03-15T11:45:45.052Z,68.50
2024-03-15T11:48:17.297Z,68.40
2024-03-15T11:50:46.202Z,68.80
2024-03-15T11:53:16.174Z,68.30
2024-03-15T11:55:44.750Z,68.60
2024-03-15T11:58:15.400Z,69.10
2024-03-15T12:00:43.791Z,68.60
2024-03-15T12:03:12.756Z,68.40
2024-03-15T12:05:43.066Z,67.60
2024-03-15T12:08:13.738Z,67.10
2024-03-15T12:10:42.056Z,67.40
2024-03-15T12:13:17.705Z,67.10
2024-03-15T12:15:46.819Z,67.40
2024-03-15T12:18:15.960Z,67.30
2024-03-15T12:20:44.321Z,67.00
2024-03-15T12:23:14.177Z,67.00
2024-03-15T12:25:42.453Z,67.10
2024-03-15T12:28:12.150Z,67.10
2024-03-15T12:30:41.903Z,67.80
2024-03-15T12:33:11.058Z,67.80
2024-03-15T12:35:39.511Z,68.20
2024-03-15T12:38:08.291Z,67.80
2024-03-15T12:40:37.040Z,68.10
2024-03-15T12:43:05.769Z,68.30
2024-03-15T12:45:34.056Z,68.20
2024-03-15T12:48:02.439Z,68.10
2024-03-15T12:50:32.854Z,68.40
2024-03-15T12:53:02.760Z,67.80
2024-03-15T12:55:31.247Z,68.10
2024-03-15T12:57:59.649Z,68.00
2024-03-15T13:00:31.372Z,67.80
2024-03-15T13:02:59.880Z,68.70
2024-03-15T13:05:28.414Z,68.20
2024-03-15T13:07:56.943Z,67.80
2024-03-15T13:10:25.168Z,68.10
2024-03-15T13:12:54.121Z,68.20
2024-03-15T13:15:23.803Z,68.40
2024-03-15T13:17:54.306Z,68.60
2024-03-15T13:20:23.345Z,69.00
2024-03-15T13:22:54.744Z,69.10
2024-03-15T13:25:33.747Z,69.10
2024-03-15T13:28:07.907Z,69.10
2024-03-15T13:30:39.208Z,69.10
2024-03-15T13:33:10.844Z,69.00
2024-03-15T13:35:43.004Z,68.90
2024-03-15T13:38:15.876Z,68.60
2024-03-15T13:40:45.183Z,68.80
2024-03-15T13:43:13.809Z,69.10
2024-03-15T13:45:42.126Z,69.20
2024-03-15T13:48:13.540Z,69.30
2024-03-15T13:50:42.408Z,69.40
2024-03-15T13:53:11.012Z,69.30
2024-03-15T13:55:40.809Z,69.10
2024-03-15T13:58:09.675Z,68.90
2024-03-15T14:00:41.152Z,69.10
2024-03-15T14:03:09.454Z,69.10
2024-03-15T14:05:39.422Z,69.00
2024-03-15T14:08:09.471Z,69.20
2024-03-15T14:10:37.966Z,69.50
2024-03-15T14:13:07.074Z,69.50
2024-03-15T14:15:36.326Z,69.70
2024-03-15T14:18:06.750Z,69.80
2024-03-15T14:20:36.716Z,70.00
2024-03-15T14:23:05.092Z,69.90
2024-03-15T14:25:34.056Z,69.30
2024-03-15T14:28:03.365Z,68.90
2024-03-15T14:30:35.057Z,68.40
2024-03-15T14:33:03.752Z,67.80
2024-03-15T14:35:32.273Z,67.60
2024-03-15T14:38:01.687Z,67.60
2024-03-15T14:40:30.783Z,67.40
2024-03-15T14:42:59.213Z,67.60
2024-03-15T14:45:28.432Z,67.60
2024-03-15T14:48:01.850Z,67.50
2024-03-15T14:50:33.109Z,67.20
2024-03-15T14:53:02.631Z,67.30
2024-03-15T14:55:34.984Z,67.10
2024-03-15T14:58:04.315Z,67.20
2024-03-15T15:00:33.937Z,67.50
2024-03-15T15:03:02.752Z,67.70
2024-03-15T15:05:31.285Z,67.80
2024-03-15T15:08:01.614Z,68.80
2024-03-15T15:10:30.843Z,68.10
2024-03-15T15:13:00.071Z,69.30
2024-03-15T15:15:29.366Z,68.50
2024-03-15T15:17:58.013Z,68.80
2024-03-15T15:20:26.608Z,68.90
2024-03-15T15:22:54.863Z,69.30
2024-03-15T15:25:23.601Z,69.40
2024-03-15T15:27:52.094Z,69.70
2024-03-15T15:30:20.988Z,69.50
2024-03-15T15:32:50.043Z,69.50
2024-03-15T15:35:18.605Z,69.20
2024-03-15T15:37:47.181Z,68.90
2024-03-15T15:40:17.994Z,68.40
2024-03-15T15:42:49.003Z,68.40
2024-03-15T15:45:19.285Z,67.80
2024-03-15T15:47:47.887Z,68.00
2024-03-15T15:50:19.883Z,67.80
2024-03-15T15:52:49.357Z,67.60
2024-03-15T15:55:18.998Z,67.50
2024-03-15T15:57:50.974Z,67.30
2024-03-15T16:00:21.687Z,67.30
2024-03-15T16:02:51.314Z,67.40
2024-03-15T16:05:20.128Z,67.30
2024-03-15T16:07:48.694Z,67.20
2024-03-15T16:10:18.166Z,67.00
2024-03-15T16:12:48.556Z,66.60
2024-03-15T16:15:16.929Z,66.50
2024-03-15T16:17:45.538Z,66.30
2024-03-15T16:20:14.710Z,66.60
2024-03-15T16:22:43.220Z,66.30
2024-03-15T16:25:11.874Z,66.60
2024-03-15T16:27:40.278Z,66.30
2024-03-15T16:30:09.165Z,66.50
2024-03-15T16:32:37.713Z,66.50
2024-03-15T16:35:08.418Z,66.80
2024-03-15T16:37:37.596Z,66.80
2024-03-15T16:40:08.452Z,66.80
2024-03-15T16:42:37.666Z,66.80
2024-03-15T16:45:07.578Z,67.90
2024-03-15T16:47:35.948Z,67.10
2024-03-15T16:50:07.067Z,67.20
2024-03-15T16:52:36.773Z,67.50
2024-03-15T16:55:06.466Z,67.30
2024-03-15T16:57:34.798Z,67.30
2024-03-15T17:00:15.505Z,67.30
2024-03-15T17:02:43.828Z,67.30
2024-03-15T17:05:12.054Z,67.40
2024-03-15T17:07:40.897Z,67.50
2024-03-15T17:10:12.111Z,67.30
2024-03-15T17:12:41.194Z,67.60
2024-03-15T17:15:11.027Z,67.80
2024-03-15T17:17:39.396Z,67.80
2024-03-15T17:20:11.007Z,67.80
2024-03-15T17:22:39.815Z,67.90
2024-03-15T17:25:09.385Z,68.00
2024-03-15T17:27:38.175Z,68.00
2024-03-15T17:30:08.153Z,68.00
2024-03-15T17:32:37.032Z,68.10
2024-03-15T17:35:05.913Z,68.20
2024-03-15T17:37:34.305Z,68.20
2024-03-15T17:40:02.734Z,68.10
2024-03-15T17:42:32.280Z,68.20
2024-03-15T17:45:00.576Z,68.30
2024-03-15T17:47:28.893Z,68.50
2024-03-15T17:49:57.362Z,68.40
2024-03-15T17:52:26.136Z,68.50
2024-03-15T17:54:54.787Z,68.70
2024-03-15T17:57:23.161Z,68.80
2024-03-15T17:59:51.717Z,68.60
2024-03-15T18:02:20.026Z,68.60
2024-03-15T18:04:48.283Z,68.90
2024-03-15T18:07:16.662Z,69.00
2024-03-15T18:09:44.916Z,69.10
2024-03-15T18:12:13.523Z,69.20
2024-03-15T18:14:41.750Z,69.40
2024-03-15T18:17:10.287Z,69.50
2024-03-15T18:19:38.834Z,69.40
2024-03-15T18:22:07.167Z,69.40
2024-03-15T18:24:35.484Z,69.50
2024-03-15T18:27:05.007Z,69.50
2024-03-15T18:29:33.265Z,69.40
2024-03-15T18:32:01.798Z,69.40
2024-03-15T18:34:30.062Z,69.40
2024-03-15T18:36:59.368Z,69.80
2024-03-15T18:39:30.375Z,69.80
2024-03-15T18:41:59.114Z,70.10
2024-03-15T18:44:29.858Z,69.80
2024-03-15T18:46:58.996Z,69.80
2024-03-15T18:49:27.621Z,69.90
2024-03-15T18:51:55.972Z,70.10
2024-03-15T18:54:24.528Z,70.10
2024-03-15T18:56:54.825Z,69.60
2024-03-15T18:59:28.096Z,70.30
2024-03-15T19:01:57.648Z,70.30
2024-03-15T19:04:26.200Z,70.40
2024-03-15T19:06:54.467Z,70.50
2024-03-15T19:09:23.124Z,70.70
2024-03-15T19:11:51.829Z,70.70
2024-03-15T19:14:22.258Z,70.70
2024-03-15T19:16:50.491Z,70.70
2024-03-15T19:19:19.035Z,70.70
2024-03-15T19:24:15.914Z,71.00
2024-03-15T19:26:45.214Z,70.90
2024-03-15T19:29:13.421Z,70.90
2024-03-15T19:31:41.700Z,71.00
2024-03-15T19:34:10.157Z,70.90
2024-03-15T19:36:38.776Z,70.90
2024-03-15T19:39:09.235Z,70.90
2024-03-15T19:41:39.446Z,70.90
2024-03-15T19:44:07.737Z,71.00
2024-03-15T19:46:36.500Z,71.00
2024-03-15T19:49:05.079Z,71.40
2024-03-15T19:51:34.171Z,70.80
2024-03-15T19:54:02.500Z,70.70
2024-03-15T19:56:31.035Z,70.70
2024-03-15T19:58:59.442Z,70.50
2024-03-15T20:01:30.145Z,70.50
2024-03-15T20:03:58.675Z,70.30
2024-03-15T20:06:28.397Z,70.20
2024-03-15T20:08:57.380Z,70.20
2024-03-15T20:11:25.949Z,70.30
2024-03-15T20:13:54.215Z,70.30
2024-03-15T20:16:25.872Z,70.30
2024-03-15T20:18:55.808Z,70.20
2024-03-15T20:21:24.436Z,70.10
2024-03-15T20:23:52.721Z,70.10
2024-03-15T20:26:24.432Z,70.00
2024-03-15T20:28:53.909Z,70.10
2024-03-15T20:31:22.463Z,70.00
2024-03-15T20:33:50.760Z,70.10
2024-03-15T20:36:19.167Z,70.20
2024-03-15T20:38:48.082Z,70.20
2024-03-15T20:41:18.656Z,70.10
2024-03-15T20:43:47.289Z,70.20
2024-03-15T20:46:15.825Z,70.30
2024-03-15T20:48:44.162Z,70.40
2024-03-15T20:51:14.875Z,70.50
2024-03-15T20:53:47.334Z,70.40
2024-03-15T20:56:15.585Z,70.40
2024-03-15T20:58:44.093Z,70.50
2024-03-15T21:01:12.492Z,71.50
2024-03-15T21:03:41.162Z,70.50
2024-03-15T21:06:09.901Z,70.50
2024-03-15T21:08:38.250Z,70.50
2024-03-15T21:11:06.866Z,70.50
2024-03-15T21:13:36.054Z,70.60
2024-03-15T21:16:04.821Z,70.40
2024-03-15T21:18:33.608Z,70.30
2024-03-15T21:21:01.802Z,70.30
2024-03-15T21:23:30.091Z,70.30
2024-03-15T21:25:58.338Z,70.50
2024-03-15T21:28:26.885Z,70.50
2024-03-15T21:30:57.326Z,71.60
2024-03-15T21:33:26.133Z,70.80
2024-03-15T21:35:56.836Z,70.80
2024-03-15T21:38:26.249Z,70.90
2024-03-15T21:40:55.015Z,70.90
2024-03-15T21:43:27.211Z,70.80
2024-03-15T21:45:58.303Z,70.70
2024-03-15T21:48:27.187Z,70.70
2024-03-15T21:50:55.917Z,70.70
2024-03-15T21:53:24.189Z,70.50
2024-03-15T21:55:54.564Z,70.50
2024-03-15T21:58:23.085Z,70.50
2024-03-15T22:00:58.182Z,70.60
2024-03-15T22:03:27.196Z,70.60
2024-03-15T22:05:55.890Z,70.50
2024-03-15T22:08:25.617Z,70.70
2024-03-15T22:10:54.980Z,70.70
2024-03-15T22:13:24.266Z,70.70
2024-03-15T22:15:55.319Z,70.80
2024-03-15T22:18:23.747Z,70.90
2024-03-15T22:20:52.106Z,70.80
2024-03-15T22:23:20.419Z,70.90
2024-03-15T22:25:50.852Z,70.80
2024-03-15T22:28:19.226Z,70.90
2024-03-15T22:30:52.061Z,70.80
2024-03-15T22:33:20.594Z,70.80
2024-03-15T22:35:49.321Z,70.80
2024-03-15T22:38:17.982Z,70.90
2024-03-15T22:40:46.246Z,71.00
2024-03-15T22:43:15.297Z,71.00
2024-03-15T22:45:44.961Z,71.20
2024-03-15T22:48:13.280Z,71.30
2024-03-15T22:50:42.128Z,71.30
2024-03-15T22:53:13.429Z,71.30
2024-03-15T22:55:41.935Z,71.40
2024-03-15T22:58:10.346Z,71.50
2024-03-15T23:00:44.291Z,71.50
2024-03-15T23:03:13.949Z,71.60
2024-03-15T23:05:42.267Z,71.50
2024-03-15T23:08:10.879Z,71.60
2024-03-15T23:10:42.011Z,71.40
2024-03-15T23:13:12.903Z,71.40
2024-03-15T23:15:41.357Z,71.40
2024-03-15T23:18:10.671Z,71.60
2024-03-15T23:20:39.113Z,71.50
2024-03-15T23:23:08.418Z,71.60
2024-03-15T23:25:37.776Z,71.70
2024-03-15T23:28:06.820Z,71.60
2024-03-15T23:30:36.033Z,71.60
2024-03-15T23:33:07.248Z,71.60
2024-03-15T23:35:36.947Z,72.60
2024-03-15T23:38:06.949Z,71.70
2024-03-15T23:40:38.974Z,71.80
2024-03-15T23:43:09.884Z,71.80
2024-03-15T23:45:38.887Z,71.80
2024-03-15T23:48:07.960Z,71.90
2024-03-15T23:50:36.338Z,71.90
2024-03-15T23:53:04.729Z,71.90
2024-03-15T23:55:33.258Z,71.90
2024-03-15T23:58:01.547Z,71.90
